Terminal Aerodrome Forecast
Issued by NWS

Home | Current Version | Previous Version | Text Only | Print | Product List | Glossary On
Versions: 1 2 3 4 5 6 7 8 9 10 11 12 13 14 15 16 17 18 19 20 21 22
687
FTUS41 KBGM 302339
TAFITH
TAF
KITH 302339Z 3100/3124 15007KT P6SM -RA SCT025 OVC040
      TEMPO 3100/3104 3SM -SNRA BR BKN015 OVC035
     FM310400 14011KT 5SM -RA BR OVC015
     FM310800 14012KT 3SM -RA BR BKN008 OVC015
     FM311100 14012G20KT 2SM -RA BR OVC008=

USA.gov is the U.S. government's official web portal to all federal, state and local government web resources and services.